Wetterdaten: Woche 24.08.15 - 30.08.15 (KW35)
Datum Zeit Temperatur Luftfeuchte Luftdruck Niederschlag Windrichtung Sonnenschein Solar Wind
24.08.2015 00:00 15,6 C 95 % 1006,8 hPa 0,0 l/m N 0,00 h 0 W/m 0,0 km/h (0 Bft)
24.08.2015 01:00 15,5 C 96 % 1006,6 hPa 0,0 l/m N 0,00 h 0 W/m 0,0 km/h (0 Bft)
24.08.2015 02:00 15,3 C 96 % 1006,1 hPa 0,0 l/m N 0,00 h 0 W/m 0,0 km/h (0 Bft)
24.08.2015 03:00 15,1 C 96 % 1005,7 hPa 0,0 l/m N 0,00 h 0 W/m 0,0 km/h (0 Bft)
24.08.2015 04:00 15,0 C 97 % 1005,4 hPa 0,2 l/m N 0,00 h 0 W/m 0,0 km/h (0 Bft)
24.08.2015 05:00 14,7 C 97 % 1005,2 hPa 0,0 l/m NW 0,00 h 0 W/m 0,5 km/h (0 Bft)
24.08.2015 06:00 14,1 C 97 % 1004,7 hPa 0,0 l/m N 0,00 h 10 W/m 0,1 km/h (0 Bft)
24.08.2015 07:00 14,5 C 98 % 1004,2 hPa 0,0 l/m O-NO 0,42 h 76 W/m 1,7 km/h (1 Bft)
24.08.2015 08:00 16,3 C 93 % 1003,9 hPa 0,0 l/m O-SO 0,58 h 191 W/m 8,2 km/h (2 Bft)
24.08.2015 09:00 17,5 C 88 % 1003,9 hPa 0,0 l/m O 0,17 h 174 W/m 7,4 km/h (2 Bft)
24.08.2015 10:00 18,2 C 85 % 1004,4 hPa 0,0 l/m O 0,00 h 163 W/m 7,5 km/h (2 Bft)
24.08.2015 11:00 18,5 C 87 % 1004,7 hPa 0,2 l/m O-NO 0,00 h 178 W/m 3,9 km/h (1 Bft)
24.08.2015 12:00 19,3 C 86 % 1004,6 hPa 0,0 l/m N 0,08 h 320 W/m 4,7 km/h (1 Bft)
24.08.2015 13:00 20,9 C 81 % 1004,5 hPa 0,0 l/m S 0,75 h 718 W/m 4,9 km/h (1 Bft)
24.08.2015 14:00 22,7 C 74 % 1004,0 hPa 0,0 l/m S-SW 0,83 h 687 W/m 9,0 km/h (2 Bft)
24.08.2015 15:00 22,9 C 71 % 1004,5 hPa 0,0 l/m W 0,00 h 176 W/m 7,1 km/h (2 Bft)
24.08.2015 16:00 22,4 C 67 % 1005,0 hPa 0,0 l/m W 0,00 h 194 W/m 14,2 km/h (3 Bft)
24.08.2015 17:00 21,6 C 70 % 1005,4 hPa 0,0 l/m W 0,00 h 151 W/m 11,3 km/h (2 Bft)
24.08.2015 18:00 19,7 C 73 % 1006,4 hPa 0,4 l/m W-NW 0,00 h 29 W/m 21,0 km/h (4 Bft)
24.08.2015 19:00 16,6 C 84 % 1008,0 hPa 1,2 l/m W 0,00 h 6 W/m 12,6 km/h (3 Bft)
24.08.2015 20:00 14,5 C 90 % 1009,5 hPa 1,8 l/m W-SW 0,00 h 0 W/m 16,5 km/h (3 Bft)
24.08.2015 21:00 13,3 C 93 % 1010,3 hPa 0,2 l/m SW 0,00 h 0 W/m 14,1 km/h (3 Bft)
24.08.2015 22:00 12,9 C 95 % 1010,7 hPa 0,0 l/m S-SW 0,00 h 0 W/m 15,0 km/h (3 Bft)
24.08.2015 23:00 13,0 C 97 % 1010,7 hPa 0,0 l/m S-SW 0,00 h 0 W/m 12,6 km/h (3 Bft)
25.08.2015 00:00 13,1 C 97 % 1011,1 hPa 0,0 l/m SW 0,00 h 0 W/m 13,4 km/h (3 Bft)
25.08.2015 01:00 13,0 C 97 % 1011,4 hPa 0,2 l/m SW 0,00 h 0 W/m 13,8 km/h (3 Bft)
25.08.2015 02:00 13,1 C 97 % 1012,1 hPa 0,0 l/m SW 0,00 h 0 W/m 16,5 km/h (3 Bft)
25.08.2015 03:00 13,2 C 97 % 1012,7 hPa 0,0 l/m SW 0,00 h 0 W/m 10,8 km/h (2 Bft)
25.08.2015 04:00 13,2 C 97 % 1013,2 hPa 0,2 l/m SW 0,00 h 0 W/m 10,1 km/h (2 Bft)
25.08.2015 05:00 13,0 C 97 % 1013,6 hPa 0,0 l/m SW 0,00 h 0 W/m 8,5 km/h (2 Bft)
25.08.2015 06:00 12,3 C 96 % 1014,4 hPa 0,0 l/m SW 0,00 h 9 W/m 11,8 km/h (2 Bft)
25.08.2015 07:00 11,9 C 94 % 1015,5 hPa 0,0 l/m W-SW 0,17 h 69 W/m 11,6 km/h (2 Bft)
25.08.2015 08:00 13,2 C 88 % 1016,5 hPa 0,0 l/m SW 1,00 h 231 W/m 15,2 km/h (3 Bft)
25.08.2015 09:00 14,4 C 80 % 1017,0 hPa 0,0 l/m W-SW 1,00 h 422 W/m 17,6 km/h (3 Bft)
25.08.2015 10:00 15,1 C 74 % 1017,3 hPa 0,0 l/m W-SW 0,92 h 537 W/m 17,4 km/h (3 Bft)
25.08.2015 11:00 16,1 C 69 % 1017,3 hPa 0,0 l/m W 1,00 h 692 W/m 19,0 km/h (3 Bft)
25.08.2015 12:00 17,0 C 63 % 1017,1 hPa 0,0 l/m W-SW 1,00 h 765 W/m 18,0 km/h (3 Bft)
25.08.2015 13:00 18,1 C 54 % 1017,0 hPa 0,0 l/m W-SW 1,00 h 810 W/m 16,2 km/h (3 Bft)
25.08.2015 14:00 19,3 C 49 % 1016,9 hPa 0,0 l/m W-SW 1,00 h 791 W/m 16,4 km/h (3 Bft)
25.08.2015 15:00 20,7 C 44 % 1016,9 hPa 0,0 l/m W 1,00 h 691 W/m 17,4 km/h (3 Bft)
25.08.2015 16:00 21,5 C 39 % 1016,9 hPa 0,0 l/m W-SW 1,00 h 610 W/m 17,2 km/h (3 Bft)
25.08.2015 17:00 21,8 C 35 % 1016,7 hPa 0,0 l/m W-SW 1,00 h 465 W/m 12,6 km/h (3 Bft)
25.08.2015 18:00 21,5 C 36 % 1016,7 hPa 0,0 l/m W 0,92 h 277 W/m 10,3 km/h (2 Bft)
25.08.2015 19:00 20,1 C 46 % 1016,9 hPa 0,0 l/m W 0,08 h 45 W/m 0,5 km/h (0 Bft)
25.08.2015 20:00 16,7 C 56 % 1017,2 hPa 0,0 l/m N 0,08 h 8 W/m 1,1 km/h (0 Bft)
25.08.2015 21:00 14,4 C 67 % 1017,7 hPa 0,0 l/m N 0,00 h 0 W/m 0,0 km/h (0 Bft)
25.08.2015 22:00 12,5 C 75 % 1017,9 hPa 0,0 l/m N 0,00 h 0 W/m 0,0 km/h (0 Bft)
25.08.2015 23:00 11,9 C 81 % 1018,2 hPa 0,0 l/m N 0,00 h 0 W/m 0,0 km/h (0 Bft)
26.08.2015 00:00 12,2 C 81 % 1018,3 hPa 0,0 l/m N 0,00 h 0 W/m 0,0 km/h (0 Bft)
26.08.2015 01:00 11,4 C 82 % 1018,3 hPa 0,0 l/m N 0,00 h 0 W/m 0,0 km/h (0 Bft)
26.08.2015 02:00 10,7 C 84 % 1018,2 hPa 0,0 l/m N 0,00 h 0 W/m 0,0 km/h (0 Bft)
26.08.2015 03:00 9,8 C 86 % 1018,0 hPa 0,0 l/m N 0,00 h 0 W/m 0,0 km/h (0 Bft)
26.08.2015 04:00 8,9 C 87 % 1018,0 hPa 0,0 l/m N 0,00 h 0 W/m 0,0 km/h (0 Bft)
26.08.2015 05:00 8,3 C 89 % 1018,2 hPa 0,0 l/m N 0,00 h 0 W/m 0,0 km/h (0 Bft)
26.08.2015 06:00 8,1 C 91 % 1018,3 hPa 0,0 l/m N 0,00 h 9 W/m 0,0 km/h (0 Bft)
26.08.2015 07:00 9,4 C 94 % 1018,4 hPa 0,0 l/m N 0,00 h 65 W/m 0,0 km/h (0 Bft)
26.08.2015 08:00 12,5 C 89 % 1018,3 hPa 0,0 l/m N 1,00 h 226 W/m 0,0 km/h (0 Bft)
26.08.2015 09:00 15,0 C 85 % 1018,0 hPa 0,0 l/m N 1,00 h 395 W/m 0,0 km/h (0 Bft)
26.08.2015 10:00 17,5 C 76 % 1017,8 hPa 0,0 l/m W-SW 1,00 h 555 W/m 1,9 km/h (1 Bft)
26.08.2015 11:00 19,4 C 69 % 1017,2 hPa 0,0 l/m W-SW 1,00 h 694 W/m 6,5 km/h (2 Bft)
26.08.2015 12:00 20,5 C 64 % 1016,6 hPa 0,0 l/m W-SW 1,00 h 778 W/m 6,8 km/h (2 Bft)
26.08.2015 13:00 22,5 C 57 % 1016,0 hPa 0,0 l/m SW 1,00 h 804 W/m 7,1 km/h (2 Bft)
26.08.2015 14:00 24,4 C 48 % 1015,1 hPa 0,0 l/m SO 1,00 h 774 W/m 7,8 km/h (2 Bft)
26.08.2015 15:00 25,9 C 44 % 1014,6 hPa 0,0 l/m SO 1,00 h 688 W/m 5,6 km/h (1 Bft)
26.08.2015 16:00 27,5 C 38 % 1013,9 hPa 0,0 l/m O-SO 1,00 h 617 W/m 8,4 km/h (2 Bft)
26.08.2015 17:00 27,9 C 37 % 1013,4 hPa 0,0 l/m S-SO 1,00 h 466 W/m 3,9 km/h (1 Bft)
26.08.2015 18:00 26,7 C 40 % 1012,8 hPa 0,0 l/m S-SO 0,92 h 271 W/m 4,8 km/h (1 Bft)
26.08.2015 19:00 24,7 C 53 % 1012,7 hPa 0,0 l/m N 0,00 h 35 W/m 0,3 km/h (0 Bft)
26.08.2015 20:00 20,8 C 61 % 1012,9 hPa 0,0 l/m N 0,00 h 6 W/m 0,0 km/h (0 Bft)
26.08.2015 21:00 17,5 C 69 % 1013,2 hPa 0,0 l/m N 0,00 h 0 W/m 0,0 km/h (0 Bft)
26.08.2015 22:00 15,6 C 75 % 1013,4 hPa 0,0 l/m N 0,00 h 0 W/m 0,0 km/h (0 Bft)
26.08.2015 23:00 14,4 C 79 % 1013,4 hPa 0,0 l/m N 0,00 h 0 W/m 0,0 km/h (0 Bft)
27.08.2015 00:00 13,3 C 84 % 1013,3 hPa 0,0 l/m N 0,00 h 0 W/m 0,0 km/h (0 Bft)
27.08.2015 01:00 12,6 C 87 % 1013,4 hPa 0,0 l/m N 0,00 h 0 W/m 0,0 km/h (0 Bft)
27.08.2015 02:00 12,1 C 89 % 1013,4 hPa 0,0 l/m N 0,00 h 0 W/m 0,0 km/h (0 Bft)
27.08.2015 03:00 11,6 C 90 % 1013,3 hPa 0,0 l/m N 0,00 h 0 W/m 0,0 km/h (0 Bft)
27.08.2015 04:00 11,1 C 91 % 1013,2 hPa 0,0 l/m N 0,00 h 0 W/m 0,0 km/h (0 Bft)
27.08.2015 05:00 10,8 C 92 % 1013,2 hPa 0,0 l/m N 0,00 h 0 W/m 0,0 km/h (0 Bft)
27.08.2015 06:00 10,9 C 94 % 1013,4 hPa 0,0 l/m N 0,00 h 7 W/m 0,0 km/h (0 Bft)
27.08.2015 07:00 11,6 C 95 % 1013,5 hPa 0,0 l/m N 0,00 h 61 W/m 0,0 km/h (0 Bft)
27.08.2015 08:00 14,6 C 94 % 1013,4 hPa 0,0 l/m SO 0,50 h 193 W/m 2,7 km/h (1 Bft)
27.08.2015 09:00 18,2 C 81 % 1013,1 hPa 0,0 l/m S 0,92 h 365 W/m 8,4 km/h (2 Bft)
27.08.2015 10:00 21,1 C 73 % 1012,9 hPa 0,0 l/m S 1,00 h 550 W/m 9,5 km/h (2 Bft)
27.08.2015 11:00 23,2 C 65 % 1012,4 hPa 0,0 l/m W-SW 1,00 h 688 W/m 9,0 km/h (2 Bft)
27.08.2015 12:00 24,8 C 56 % 1011,9 hPa 0,0 l/m S-SW 1,00 h 773 W/m 9,4 km/h (2 Bft)
27.08.2015 13:00 26,9 C 45 % 1011,4 hPa 0,0 l/m S-SW 1,00 h 783 W/m 12,2 km/h (2 Bft)
27.08.2015 14:00 28,2 C 41 % 1011,0 hPa 0,0 l/m SW 1,00 h 704 W/m 11,8 km/h (2 Bft)
27.08.2015 15:00 29,4 C 41 % 1010,8 hPa 0,0 l/m SW 1,00 h 559 W/m 14,0 km/h (3 Bft)
27.08.2015 16:00 29,1 C 41 % 1010,2 hPa 0,0 l/m SW 0,67 h 364 W/m 12,8 km/h (3 Bft)
27.08.2015 17:00 29,7 C 40 % 1009,9 hPa 0,0 l/m SW 1,00 h 414 W/m 10,6 km/h (2 Bft)
27.08.2015 18:00 29,9 C 39 % 1009,7 hPa 0,0 l/m W-SW 0,92 h 255 W/m 6,2 km/h (2 Bft)
27.08.2015 19:00 27,8 C 49 % 1009,7 hPa 0,0 l/m N 0,17 h 43 W/m 0,8 km/h (0 Bft)
27.08.2015 20:00 23,4 C 58 % 1009,9 hPa 0,0 l/m N 0,00 h 7 W/m 0,1 km/h (0 Bft)
27.08.2015 21:00 20,4 C 67 % 1010,1 hPa 0,0 l/m N 0,00 h 0 W/m 0,0 km/h (0 Bft)
27.08.2015 22:00 18,7 C 75 % 1010,5 hPa 0,0 l/m N 0,00 h 0 W/m 0,0 km/h (0 Bft)
27.08.2015 23:00 17,7 C 81 % 1010,7 hPa 0,0 l/m W-SW 0,00 h 0 W/m 1,1 km/h (0 Bft)
28.08.2015 00:00 17,2 C 84 % 1010,9 hPa 0,0 l/m W-SW 0,00 h 0 W/m 1,3 km/h (1 Bft)
28.08.2015 01:00 17,3 C 84 % 1011,2 hPa 0,0 l/m SW 0,00 h 0 W/m 9,4 km/h (2 Bft)
28.08.2015 02:00 17,8 C 82 % 1011,5 hPa 0,0 l/m SW 0,00 h 0 W/m 4,3 km/h (1 Bft)
28.08.2015 03:00 17,2 C 84 % 1012,0 hPa 0,0 l/m SW 0,00 h 0 W/m 3,3 km/h (1 Bft)
28.08.2015 04:00 17,0 C 85 % 1012,6 hPa 0,0 l/m W-NW 0,00 h 0 W/m 2,4 km/h (1 Bft)
28.08.2015 05:00 16,9 C 87 % 1013,2 hPa 0,0 l/m N 0,00 h 0 W/m 0,3 km/h (0 Bft)
28.08.2015 06:00 16,9 C 88 % 1013,4 hPa 0,0 l/m N 0,00 h 7 W/m 0,0 km/h (0 Bft)
28.08.2015 07:00 16,9 C 89 % 1013,8 hPa 0,0 l/m N 0,00 h 26 W/m 0,0 km/h (0 Bft)
28.08.2015 08:00 17,3 C 90 % 1014,6 hPa 0,0 l/m N 0,25 h 131 W/m 0,0 km/h (0 Bft)
28.08.2015 09:00 20,0 C 82 % 1014,7 hPa 0,0 l/m S-SW 0,08 h 207 W/m 8,5 km/h (2 Bft)
28.08.2015 10:00 21,8 C 75 % 1015,1 hPa 0,0 l/m S-SW 0,58 h 379 W/m 9,8 km/h (2 Bft)
28.08.2015 11:00 23,8 C 68 % 1015,2 hPa 0,0 l/m S-SW 0,33 h 404 W/m 13,4 km/h (3 Bft)
28.08.2015 12:00 25,3 C 59 % 1015,4 hPa 0,0 l/m SW 0,75 h 496 W/m 17,8 km/h (3 Bft)
28.08.2015 13:00 26,5 C 55 % 1015,4 hPa 0,0 l/m W-SW 1,00 h 785 W/m 21,7 km/h (4 Bft)
28.08.2015 14:00 27,8 C 50 % 1015,5 hPa 0,0 l/m W-SW 1,00 h 731 W/m 19,2 km/h (3 Bft)
28.08.2015 15:00 29,5 C 45 % 1015,4 hPa 0,0 l/m W-SW 1,00 h 682 W/m 13,6 km/h (3 Bft)
28.08.2015 16:00 30,8 C 41 % 1015,2 hPa 0,0 l/m W-SW 1,00 h 573 W/m 14,9 km/h (3 Bft)
28.08.2015 17:00 31,1 C 41 % 1015,0 hPa 0,0 l/m SW 1,00 h 425 W/m 13,6 km/h (3 Bft)
28.08.2015 18:00 30,4 C 44 % 1015,2 hPa 0,0 l/m SW 0,83 h 223 W/m 9,9 km/h (2 Bft)
28.08.2015 19:00 28,4 C 52 % 1015,7 hPa 0,0 l/m N 0,00 h 34 W/m 10,3 km/h (2 Bft)
28.08.2015 20:00 25,4 C 61 % 1016,3 hPa 0,0 l/m N 0,08 h 7 W/m 0,4 km/h (0 Bft)
28.08.2015 21:00 22,9 C 69 % 1017,1 hPa 0,0 l/m N 0,00 h 0 W/m 1,1 km/h (0 Bft)
28.08.2015 22:00 21,2 C 75 % 1017,8 hPa 0,0 l/m N 0,00 h 0 W/m 5,2 km/h (1 Bft)
28.08.2015 23:00 20,1 C 80 % 1018,3 hPa 0,0 l/m N 0,00 h 0 W/m 2,5 km/h (1 Bft)
29.08.2015 00:00 19,3 C 85 % 1018,6 hPa 0,0 l/m N 0,00 h 0 W/m 0,0 km/h (0 Bft)
29.08.2015 01:00 18,5 C 87 % 1018,8 hPa 0,0 l/m N 0,00 h 0 W/m 0,3 km/h (0 Bft)
29.08.2015 02:00 17,9 C 90 % 1018,8 hPa 0,0 l/m N 0,00 h 0 W/m 0,5 km/h (0 Bft)
29.08.2015 03:00 17,4 C 91 % 1018,8 hPa 0,0 l/m N 0,00 h 0 W/m 0,7 km/h (0 Bft)
29.08.2015 04:00 16,9 C 92 % 1018,8 hPa 0,0 l/m N 0,00 h 0 W/m 1,5 km/h (1 Bft)
29.08.2015 05:00 16,5 C 93 % 1018,8 hPa 0,0 l/m N 0,00 h 0 W/m 1,1 km/h (0 Bft)
29.08.2015 06:00 16,1 C 94 % 1018,8 hPa 0,0 l/m N 0,00 h 8 W/m 3,1 km/h (1 Bft)
29.08.2015 07:00 16,3 C 96 % 1019,1 hPa 0,0 l/m N 0,00 h 56 W/m 3,1 km/h (1 Bft)
29.08.2015 08:00 18,0 C 92 % 1019,3 hPa 0,0 l/m N 0,92 h 214 W/m 5,2 km/h (1 Bft)
29.08.2015 09:00 20,7 C 83 % 1019,3 hPa 0,0 l/m N 1,00 h 382 W/m 6,8 km/h (2 Bft)
29.08.2015 10:00 22,6 C 76 % 1019,4 hPa 0,0 l/m N-NO 1,00 h 539 W/m 6,7 km/h (2 Bft)
29.08.2015 11:00 24,3 C 71 % 1019,5 hPa 0,0 l/m O-NO 1,00 h 665 W/m 7,9 km/h (2 Bft)
29.08.2015 12:00 26,3 C 62 % 1019,0 hPa 0,0 l/m O-NO 1,00 h 745 W/m 11,0 km/h (2 Bft)
29.08.2015 13:00 28,8 C 52 % 1018,4 hPa 0,0 l/m O 1,00 h 775 W/m 11,6 km/h (2 Bft)
29.08.2015 14:00 30,3 C 46 % 1017,8 hPa 0,0 l/m O-NO 1,00 h 754 W/m 12,3 km/h (3 Bft)
29.08.2015 15:00 32,0 C 42 % 1017,2 hPa 0,0 l/m O 1,00 h 686 W/m 12,4 km/h (3 Bft)
29.08.2015 16:00 32,7 C 38 % 1016,7 hPa 0,0 l/m O-SO 1,00 h 576 W/m 13,0 km/h (3 Bft)
29.08.2015 17:00 32,2 C 37 % 1016,2 hPa 0,0 l/m O 1,00 h 431 W/m 15,3 km/h (3 Bft)
29.08.2015 18:00 31,3 C 41 % 1015,8 hPa 0,0 l/m O 0,83 h 238 W/m 14,4 km/h (3 Bft)
29.08.2015 19:00 29,5 C 47 % 1015,7 hPa 0,0 l/m O 0,00 h 23 W/m 10,6 km/h (2 Bft)
29.08.2015 20:00 27,2 C 56 % 1015,8 hPa 0,0 l/m N 0,00 h 5 W/m 1,1 km/h (0 Bft)
29.08.2015 21:00 24,1 C 65 % 1016,1 hPa 0,0 l/m O 0,00 h 0 W/m 0,7 km/h (0 Bft)
29.08.2015 22:00 22,4 C 72 % 1016,1 hPa 0,0 l/m O 0,00 h 0 W/m 5,2 km/h (1 Bft)
29.08.2015 23:00 21,8 C 74 % 1016,2 hPa 0,0 l/m O 0,00 h 0 W/m 3,5 km/h (1 Bft)
30.08.2015 00:00 21,3 C 75 % 1016,2 hPa 0,0 l/m N 0,00 h 0 W/m 0,5 km/h (0 Bft)
30.08.2015 01:00 20,4 C 77 % 1016,1 hPa 0,0 l/m N 0,00 h 0 W/m 0,0 km/h (0 Bft)
30.08.2015 02:00 19,5 C 81 % 1015,9 hPa 0,0 l/m N 0,00 h 0 W/m 0,0 km/h (0 Bft)
30.08.2015 03:00 18,7 C 83 % 1015,9 hPa 0,0 l/m N 0,00 h 0 W/m 0,0 km/h (0 Bft)
30.08.2015 04:00 18,0 C 85 % 1016,1 hPa 0,0 l/m N 0,00 h 0 W/m 0,0 km/h (0 Bft)
30.08.2015 05:00 17,3 C 88 % 1016,3 hPa 0,0 l/m N 0,00 h 0 W/m 0,0 km/h (0 Bft)
30.08.2015 06:00 16,6 C 89 % 1016,5 hPa 0,0 l/m N 0,00 h 8 W/m 0,0 km/h (0 Bft)
30.08.2015 07:00 16,8 C 93 % 1016,9 hPa 0,0 l/m N 0,00 h 48 W/m 0,7 km/h (0 Bft)
30.08.2015 08:00 19,5 C 91 % 1017,0 hPa 0,0 l/m O-SO 0,83 h 202 W/m 2,8 km/h (1 Bft)
30.08.2015 09:00 23,2 C 80 % 1017,2 hPa 0,0 l/m S-SO 1,00 h 366 W/m 10,2 km/h (2 Bft)
30.08.2015 10:00 25,1 C 73 % 1017,0 hPa 0,0 l/m S-SW 1,00 h 522 W/m 11,2 km/h (2 Bft)
30.08.2015 11:00 26,5 C 68 % 1016,8 hPa 0,0 l/m SW 1,00 h 653 W/m 12,6 km/h (3 Bft)
30.08.2015 12:00 27,8 C 61 % 1016,5 hPa 0,0 l/m SW 1,00 h 740 W/m 15,6 km/h (3 Bft)
30.08.2015 13:00 29,3 C 53 % 1016,0 hPa 0,0 l/m S-SW 1,00 h 775 W/m 14,6 km/h (3 Bft)
30.08.2015 14:00 30,4 C 48 % 1015,4 hPa 0,0 l/m S 1,00 h 753 W/m 12,0 km/h (2 Bft)
30.08.2015 15:00 32,5 C 42 % 1014,7 hPa 0,0 l/m S-SW 1,00 h 686 W/m 9,8 km/h (2 Bft)
30.08.2015 16:00 33,9 C 37 % 1014,0 hPa 0,0 l/m SW 1,00 h 581 W/m 7,2 km/h (2 Bft)
30.08.2015 17:00 34,6 C 34 % 1013,7 hPa 0,0 l/m SW 1,00 h 434 W/m 4,5 km/h (1 Bft)
30.08.2015 18:00 33,6 C 39 % 1013,3 hPa 0,0 l/m SW 0,83 h 238 W/m 0,8 km/h (0 Bft)
30.08.2015 19:00 30,4 C 50 % 1013,3 hPa 0,0 l/m N 0,00 h 24 W/m 0,0 km/h (0 Bft)
30.08.2015 20:00 25,3 C 59 % 1013,5 hPa 0,0 l/m N 0,00 h 5 W/m 0,0 km/h (0 Bft)
30.08.2015 21:00 22,5 C 68 % 1014,0 hPa 0,0 l/m N 0,00 h 0 W/m 0,0 km/h (0 Bft)
30.08.2015 22:00 20,8 C 74 % 1014,1 hPa 0,0 l/m N 0,00 h 0 W/m 0,0 km/h (0 Bft)
30.08.2015 23:00 19,6 C 78 % 1014,2 hPa 0,0 l/m N 0,00 h 0 W/m 0,0 km/h (0 Bft)
Min-Datum _ 26.08.15 25.08.15 24.08.15 - - - - 24.08.15
_ Min-Zeit 06:05 17:25 08:25 - - - - 00:00
Minimum _ 8,1 C 33 % 1003,8 hPa - - - - 0,0 km/h (0 Bft)
Max-Datum _ 30.08.15 24.08.15 29.08.15 24.08.15 - 24.08.15 24.08.15 24.08.15
_ Max-Zeit 17:20 23:20 10:25 20:00 - 07:30 14:55 18:00
Maximum _ 34,7 C 99 % 1019,6 hPa 1,8 l/m - 0,08 h 935 W/m 29,0 km/h
W-NW (5 Bft)
Durchschnitt _ 20,0 C 72 % 1013,9 hPa #4,4 l/m SW #64:25 h 374 W/m 6,2 km/h (2 Bft)